sensor_id;sensor_type;location;lat;lon;timestamp;P1;durP1;ratioP1;P2;durP2;ratioP2
15500;SDS011;7852;52.228;5.990;2023-08-06T00:04:15;219.2;;;210.3;;
15500;SDS011;7852;52.228;5.990;2023-08-06T00:04:15;190.3;;;182.1;;
15500;SDS011;7852;52.228;5.990;2023-08-06T00:04:16;177.1;;;169.5;;
15500;SDS011;7852;52.228;5.990;2023-08-06T00:04:16;189.6;;;181.5;;
15500;SDS011;7852;52.228;5.990;2023-08-06T00:04:18;182.2;;;174.6;;
15500;SDS011;7852;52.228;5.990;2023-08-06T00:05:18;177.8;;;170.3;;
15500;SDS011;7852;52.228;5.990;2023-08-06T00:06:18;168;;;160.9;;
15500;SDS011;7852;52.228;5.990;2023-08-06T00:07:18;173.6;;;166.2;;
15500;SDS011;7852;52.228;5.990;2023-08-06T00:08:18;172.3;;;164.9;;
15500;SDS011;7852;52.228;5.990;2023-08-06T00:09:18;181.9;;;174.2;;
15500;SDS011;7852;52.228;5.990;2023-08-06T00:10:18;177.4;;;169.9;;
15500;SDS011;7852;52.228;5.990;2023-08-06T00:11:18;175.9;;;168.3;;
15500;SDS011;7852;52.228;5.990;2023-08-06T00:12:18;175.9;;;168.4;;
15500;SDS011;7852;52.228;5.990;2023-08-06T00:13:18;205.3;;;196.9;;
15500;SDS011;7852;52.228;5.990;2023-08-06T00:14:18;181.5;;;174;;
15500;SDS011;7852;52.228;5.990;2023-08-06T00:15:18;180.6;;;172.7;;
15500;SDS011;7852;52.228;5.990;2023-08-06T00:16:18;170;;;162.5;;
15500;SDS011;7852;52.228;5.990;2023-08-06T00:17:18;185.8;;;178.1;;
15500;SDS011;7852;52.228;5.990;2023-08-06T00:18:18;199.1;;;190.7;;
15500;SDS011;7852;52.228;5.990;2023-08-06T00:19:18;192.1;;;184;;
15500;SDS011;7852;52.228;5.990;2023-08-06T00:20:18;163.1;;;156.1;;
15500;SDS011;7852;52.228;5.990;2023-08-06T00:21:18;157.8;;;150.8;;
15500;SDS011;7852;52.228;5.990;2023-08-06T00:22:18;177.9;;;170.4;;
15500;SDS011;7852;52.228;5.990;2023-08-06T00:23:18;181.6;;;173.9;;
15500;SDS011;7852;52.228;5.990;2023-08-06T00:24:18;168.9;;;161.7;;
15500;SDS011;7852;52.228;5.990;2023-08-06T00:25:18;172.7;;;165.1;;
15500;SDS011;7852;52.228;5.990;2023-08-06T00:26:18;163;;;156.1;;
15500;SDS011;7852;52.228;5.990;2023-08-06T00:27:18;164.4;;;157.5;;
15500;SDS011;7852;52.228;5.990;2023-08-06T00:28:18;163.9;;;156.9;;
15500;SDS011;7852;52.228;5.990;2023-08-06T00:29:18;159.5;;;152.4;;
15500;SDS011;7852;52.228;5.990;2023-08-06T00:30:19;155.7;;;148.8;;
15500;SDS011;7852;52.228;5.990;2023-08-06T00:31:18;166.8;;;159.7;;
15500;SDS011;7852;52.228;5.990;2023-08-06T00:32:19;164.6;;;157.7;;
15500;SDS011;7852;52.228;5.990;2023-08-06T00:33:18;160.2;;;153.4;;
15500;SDS011;7852;52.228;5.990;2023-08-06T00:34:18;167.2;;;160.1;;
15500;SDS011;7852;52.228;5.990;2023-08-06T00:35:18;170.2;;;162.9;;
15500;SDS011;7852;52.228;5.990;2023-08-06T00:36:18;161.8;;;154.8;;
15500;SDS011;7852;52.228;5.990;2023-08-06T00:37:18;149.6;;;143.1;;
15500;SDS011;7852;52.228;5.990;2023-08-06T00:38:19;137.1;;;130.9;;
15500;SDS011;7852;52.228;5.990;2023-08-06T00:39:18;119.8;;;114.2;;
15500;SDS011;7852;52.228;5.990;2023-08-06T00:40:20;103.8;;;99.1;;
15500;SDS011;7852;52.228;5.990;2023-08-06T00:42:18;71.7;;;67.9;;
15500;SDS011;7852;52.228;5.990;2023-08-06T00:43:18;55.9;;;52.7;;
15500;SDS011;7852;52.228;5.990;2023-08-06T00:44:18;52.9;;;49.7;;
15500;SDS011;7852;52.228;5.990;2023-08-06T00:45:18;51.8;;;48.7;;
15500;SDS011;7852;52.228;5.990;2023-08-06T00:46:18;55.3;;;52.1;;
15500;SDS011;7852;52.228;5.990;2023-08-06T00:47:18;69;;;65.2;;
15500;SDS011;7852;52.228;5.990;2023-08-06T00:48:18;71.1;;;67.5;;
15500;SDS011;7852;52.228;5.990;2023-08-06T00:49:18;78.4;;;74.4;;
15500;SDS011;7852;52.228;5.990;2023-08-06T00:50:18;86.8;;;82.7;;
15500;SDS011;7852;52.228;5.990;2023-08-06T00:51:18;97.3;;;92.7;;
15500;SDS011;7852;52.228;5.990;2023-08-06T00:52:18;87.3;;;82.5;;
15500;SDS011;7852;52.228;5.990;2023-08-06T00:53:18;67.7;;;64.1;;
15500;SDS011;7852;52.228;5.990;2023-08-06T00:54:18;58.2;;;55;;
15500;SDS011;7852;52.228;5.990;2023-08-06T00:55:20;77;;;73;;
15500;SDS011;7852;52.228;5.990;2023-08-06T00:56:20;80.4;;;76.1;;
15500;SDS011;7852;52.228;5.990;2023-08-06T00:57:18;83.8;;;79.5;;
15500;SDS011;7852;52.228;5.990;2023-08-06T00:58:18;69.3;;;65.3;;
15500;SDS011;7852;52.228;5.990;2023-08-06T00:59:18;60.7;;;57.3;;
15500;SDS011;7852;52.228;5.990;2023-08-06T01:00:18;61;;;57.5;;
15500;SDS011;7852;52.228;5.990;2023-08-06T01:01:18;65.4;;;61.6;;
15500;SDS011;7852;52.228;5.990;2023-08-06T01:02:20;78.5;;;74.3;;
15500;SDS011;7852;52.228;5.990;2023-08-06T01:03:18;84.4;;;80.2;;
15500;SDS011;7852;52.228;5.990;2023-08-06T01:04:18;101.9;;;97.1;;
15500;SDS011;7852;52.228;5.990;2023-08-06T01:05:18;101.3;;;96.4;;
15500;SDS011;7852;52.228;5.990;2023-08-06T01:06:19;107.8;;;102.8;;
15500;SDS011;7852;52.228;5.990;2023-08-06T01:07:21;95.4;;;90.6;;
15500;SDS011;7852;52.228;5.990;2023-08-06T01:08:31;88.2;;;83.9;;
15500;SDS011;7852;52.228;5.990;2023-08-06T01:09:21;82.7;;;78.3;;
15500;SDS011;7852;52.228;5.990;2023-08-06T01:10:21;85.5;;;81.1;;
15500;SDS011;7852;52.228;5.990;2023-08-06T01:11:31;72.1;;;67.9;;
15500;SDS011;7852;52.228;5.990;2023-08-06T01:12:20;69.2;;;65.5;;
15500;SDS011;7852;52.228;5.990;2023-08-06T01:13:21;65.4;;;61.8;;
15500;SDS011;7852;52.228;5.990;2023-08-06T01:14:21;68.4;;;64.6;;
15500;SDS011;7852;52.228;5.990;2023-08-06T01:15:22;77.6;;;73.1;;
15500;SDS011;7852;52.228;5.990;2023-08-06T01:16:19;72.5;;;68.8;;
15500;SDS011;7852;52.228;5.990;2023-08-06T01:17:18;68.5;;;64.5;;
15500;SDS011;7852;52.228;5.990;2023-08-06T01:18:19;59.4;;;55.8;;
15500;SDS011;7852;52.228;5.990;2023-08-06T01:19:18;43;;;39.8;;
15500;SDS011;7852;52.228;5.990;2023-08-06T01:20:18;44;;;41.2;;
15500;SDS011;7852;52.228;5.990;2023-08-06T01:21:19;48.5;;;45.4;;
15500;SDS011;7852;52.228;5.990;2023-08-06T01:22:18;44.1;;;41.3;;
15500;SDS011;7852;52.228;5.990;2023-08-06T01:23:18;36.3;;;33.5;;
15500;SDS011;7852;52.228;5.990;2023-08-06T01:24:18;25.5;;;23.5;;
15500;SDS011;7852;52.228;5.990;2023-08-06T01:25:18;28.7;;;26.5;;
15500;SDS011;7852;52.228;5.990;2023-08-06T01:26:19;33.3;;;30.7;;
15500;SDS011;7852;52.228;5.990;2023-08-06T01:27:21;33.6;;;30.8;;
15500;SDS011;7852;52.228;5.990;2023-08-06T01:28:20;39.4;;;36.6;;
15500;SDS011;7852;52.228;5.990;2023-08-06T01:29:19;40;;;37.4;;
15500;SDS011;7852;52.228;5.990;2023-08-06T01:30:20;56.5;;;52.8;;
15500;SDS011;7852;52.228;5.990;2023-08-06T01:31:20;49.7;;;46.5;;
15500;SDS011;7852;52.228;5.990;2023-08-06T01:32:18;41.5;;;38.6;;
15500;SDS011;7852;52.228;5.990;2023-08-06T01:33:19;33.1;;;30.6;;
15500;SDS011;7852;52.228;5.990;2023-08-06T01:34:21;33.7;;;30.9;;
15500;SDS011;7852;52.228;5.990;2023-08-06T01:35:21;37.6;;;34.9;;
15500;SDS011;7852;52.228;5.990;2023-08-06T01:36:21;44.4;;;41.7;;
15500;SDS011;7852;52.228;5.990;2023-08-06T01:37:21;42.3;;;39.3;;
15500;SDS011;7852;52.228;5.990;2023-08-06T01:38:21;47.5;;;44.5;;
15500;SDS011;7852;52.228;5.990;2023-08-06T01:39:21;41.5;;;38.6;;
15500;SDS011;7852;52.228;5.990;2023-08-06T01:40:21;49.8;;;46.6;;
15500;SDS011;7852;52.228;5.990;2023-08-06T01:41:21;77.8;;;73.8;;
15500;SDS011;7852;52.228;5.990;2023-08-06T01:42:21;56.4;;;53;;
15500;SDS011;7852;52.228;5.990;2023-08-06T01:43:21;67;;;63.1;;
15500;SDS011;7852;52.228;5.990;2023-08-06T01:44:21;77.1;;;73.2;;
15500;SDS011;7852;52.228;5.990;2023-08-06T01:45:21;92.9;;;88.1;;
15500;SDS011;7852;52.228;5.990;2023-08-06T01:46:21;91.5;;;86.8;;
15500;SDS011;7852;52.228;5.990;2023-08-06T01:47:21;81.4;;;77.3;;
15500;SDS011;7852;52.228;5.990;2023-08-06T01:48:21;71.7;;;67.6;;
15500;SDS011;7852;52.228;5.990;2023-08-06T01:49:22;83.7;;;79.2;;
15500;SDS011;7852;52.228;5.990;2023-08-06T01:50:21;88.9;;;84.2;;
15500;SDS011;7852;52.228;5.990;2023-08-06T01:51:22;99.5;;;94.5;;
15500;SDS011;7852;52.228;5.990;2023-08-06T01:52:21;83.7;;;79.3;;
15500;SDS011;7852;52.228;5.990;2023-08-06T01:53:21;107.5;;;102.5;;
15500;SDS011;7852;52.228;5.990;2023-08-06T01:54:21;81.4;;;77.2;;
15500;SDS011;7852;52.228;5.990;2023-08-06T01:55:21;88.6;;;84.1;;
15500;SDS011;7852;52.228;5.990;2023-08-06T01:56:21;86.7;;;82.5;;
15500;SDS011;7852;52.228;5.990;2023-08-06T01:57:21;93.9;;;89.3;;
15500;SDS011;7852;52.228;5.990;2023-08-06T01:58:21;87.7;;;83.4;;
15500;SDS011;7852;52.228;5.990;2023-08-06T01:59:21;92;;;87.4;;
15500;SDS011;7852;52.228;5.990;2023-08-06T02:00:21;90.3;;;85.8;;
15500;SDS011;7852;52.228;5.990;2023-08-06T02:01:21;88.7;;;83.8;;
15500;SDS011;7852;52.228;5.990;2023-08-06T02:02:21;110.5;;;105.2;;
15500;SDS011;7852;52.228;5.990;2023-08-06T02:03:21;97.1;;;92.1;;
15500;SDS011;7852;52.228;5.990;2023-08-06T02:04:21;113.3;;;107.8;;
15500;SDS011;7852;52.228;5.990;2023-08-06T02:05:21;131.1;;;125.2;;
15500;SDS011;7852;52.228;5.990;2023-08-06T02:06:21;134;;;127.8;;
15500;SDS011;7852;52.228;5.990;2023-08-06T02:07:21;129.1;;;123.2;;
15500;SDS011;7852;52.228;5.990;2023-08-06T02:08:21;103.1;;;98;;
15500;SDS011;7852;52.228;5.990;2023-08-06T02:09:21;92.6;;;88;;
15500;SDS011;7852;52.228;5.990;2023-08-06T02:10:21;104.5;;;99.2;;
15500;SDS011;7852;52.228;5.990;2023-08-06T02:11:21;102.8;;;97.7;;
15500;SDS011;7852;52.228;5.990;2023-08-06T02:12:21;90.3;;;85.5;;
15500;SDS011;7852;52.228;5.990;2023-08-06T02:13:21;99;;;94.3;;
15500;SDS011;7852;52.228;5.990;2023-08-06T02:14:21;90.5;;;85.9;;
15500;SDS011;7852;52.228;5.990;2023-08-06T02:15:21;81.7;;;77.5;;
15500;SDS011;7852;52.228;5.990;2023-08-06T02:16:21;93.7;;;88.6;;
15500;SDS011;7852;52.228;5.990;2023-08-06T02:17:21;118.9;;;113.1;;
15500;SDS011;7852;52.228;5.990;2023-08-06T02:18:21;127.9;;;121.9;;
15500;SDS011;7852;52.228;5.990;2023-08-06T02:19:21;117.6;;;112;;
15500;SDS011;7852;52.228;5.990;2023-08-06T02:20:21;151.8;;;144.6;;
15500;SDS011;7852;52.228;5.990;2023-08-06T02:21:21;133.6;;;127.6;;
15500;SDS011;7852;52.228;5.990;2023-08-06T02:22:21;136.7;;;130.4;;
15500;SDS011;7852;52.228;5.990;2023-08-06T02:23:21;121.6;;;115.9;;
15500;SDS011;7852;52.228;5.990;2023-08-06T02:24:21;118.1;;;112.4;;
15500;SDS011;7852;52.228;5.990;2023-08-06T02:25:21;79.2;;;74.4;;
15500;SDS011;7852;52.228;5.990;2023-08-06T02:26:21;75.5;;;71.3;;
15500;SDS011;7852;52.228;5.990;2023-08-06T02:27:21;93.5;;;88.5;;
15500;SDS011;7852;52.228;5.990;2023-08-06T02:28:22;105.1;;;100;;
15500;SDS011;7852;52.228;5.990;2023-08-06T02:29:21;108.4;;;103;;
15500;SDS011;7852;52.228;5.990;2023-08-06T02:30:21;141.9;;;135.4;;
15500;SDS011;7852;52.228;5.990;2023-08-06T02:31:21;103.2;;;98;;
15500;SDS011;7852;52.228;5.990;2023-08-06T02:32:21;94.4;;;89.4;;
15500;SDS011;7852;52.228;5.990;2023-08-06T02:33:21;100.6;;;95.4;;
15500;SDS011;7852;52.228;5.990;2023-08-06T02:34:21;105.9;;;100.3;;
15500;SDS011;7852;52.228;5.990;2023-08-06T02:35:22;102.6;;;97.3;;
15500;SDS011;7852;52.228;5.990;2023-08-06T02:36:21;133.4;;;127.2;;
15500;SDS011;7852;52.228;5.990;2023-08-06T02:37:21;113.6;;;108.2;;
15500;SDS011;7852;52.228;5.990;2023-08-06T02:38:21;114.6;;;109.2;;
15500;SDS011;7852;52.228;5.990;2023-08-06T02:39:21;121.9;;;115.7;;
15500;SDS011;7852;52.228;5.990;2023-08-06T02:40:21;147.2;;;140;;
15500;SDS011;7852;52.228;5.990;2023-08-06T02:41:21;155.4;;;148.1;;
15500;SDS011;7852;52.228;5.990;2023-08-06T02:42:21;147.9;;;141;;
15500;SDS011;7852;52.228;5.990;2023-08-06T02:43:21;160.2;;;152.4;;
15500;SDS011;7852;52.228;5.990;2023-08-06T02:44:21;137.8;;;131.2;;
15500;SDS011;7852;52.228;5.990;2023-08-06T02:45:21;129.2;;;123.2;;
15500;SDS011;7852;52.228;5.990;2023-08-06T02:46:21;119.5;;;113.7;;
15500;SDS011;7852;52.228;5.990;2023-08-06T02:47:21;105;;;100;;
15500;SDS011;7852;52.228;5.990;2023-08-06T02:48:21;111.8;;;105.9;;
15500;SDS011;7852;52.228;5.990;2023-08-06T02:49:21;106.9;;;101.5;;
15500;SDS011;7852;52.228;5.990;2023-08-06T02:50:21;120.6;;;114.8;;
15500;SDS011;7852;52.228;5.990;2023-08-06T02:51:21;100.7;;;95.6;;
15500;SDS011;7852;52.228;5.990;2023-08-06T02:52:21;83.2;;;78.9;;
15500;SDS011;7852;52.228;5.990;2023-08-06T02:53:21;85.3;;;80.3;;
15500;SDS011;7852;52.228;5.990;2023-08-06T02:54:21;94.5;;;89.6;;
15500;SDS011;7852;52.228;5.990;2023-08-06T02:55:21;99.1;;;93.8;;
15500;SDS011;7852;52.228;5.990;2023-08-06T02:56:21;94.7;;;89.9;;
15500;SDS011;7852;52.228;5.990;2023-08-06T02:57:21;101.8;;;96.4;;
15500;SDS011;7852;52.228;5.990;2023-08-06T02:58:21;107.8;;;102.3;;
15500;SDS011;7852;52.228;5.990;2023-08-06T02:59:21;99.3;;;94;;
15500;SDS011;7852;52.228;5.990;2023-08-06T03:00:21;102.7;;;97.6;;
15500;SDS011;7852;52.228;5.990;2023-08-06T03:01:21;102.6;;;97.2;;
15500;SDS011;7852;52.228;5.990;2023-08-06T03:02:21;110.5;;;104.7;;
15500;SDS011;7852;52.228;5.990;2023-08-06T03:03:21;107.6;;;102;;
15500;SDS011;7852;52.228;5.990;2023-08-06T03:04:21;93.8;;;88.9;;
15500;SDS011;7852;52.228;5.990;2023-08-06T03:05:21;95.8;;;90.8;;
15500;SDS011;7852;52.228;5.990;2023-08-06T03:06:21;75.4;;;70.9;;
15500;SDS011;7852;52.228;5.990;2023-08-06T03:07:21;83.7;;;79.1;;
15500;SDS011;7852;52.228;5.990;2023-08-06T03:08:21;76.5;;;72.3;;
15500;SDS011;7852;52.228;5.990;2023-08-06T03:09:21;68.4;;;64.5;;
15500;SDS011;7852;52.228;5.990;2023-08-06T03:10:21;71.1;;;67;;
15500;SDS011;7852;52.228;5.990;2023-08-06T03:11:21;100.8;;;95.7;;
15500;SDS011;7852;52.228;5.990;2023-08-06T03:12:21;87.8;;;83;;
15500;SDS011;7852;52.228;5.990;2023-08-06T03:13:21;71.1;;;67.1;;
15500;SDS011;7852;52.228;5.990;2023-08-06T03:14:21;80.1;;;75.5;;
15500;SDS011;7852;52.228;5.990;2023-08-06T03:15:21;69.6;;;65.6;;
15500;SDS011;7852;52.228;5.990;2023-08-06T03:16:21;70;;;66.1;;
15500;SDS011;7852;52.228;5.990;2023-08-06T03:17:21;68.1;;;64;;
15500;SDS011;7852;52.228;5.990;2023-08-06T03:18:21;68.2;;;64.2;;
15500;SDS011;7852;52.228;5.990;2023-08-06T03:19:21;72.4;;;68.6;;
15500;SDS011;7852;52.228;5.990;2023-08-06T03:20:21;73.2;;;68.8;;
15500;SDS011;7852;52.228;5.990;2023-08-06T03:21:21;76.3;;;72;;
15500;SDS011;7852;52.228;5.990;2023-08-06T03:22:21;67.3;;;63.4;;
15500;SDS011;7852;52.228;5.990;2023-08-06T03:23:21;67.7;;;63.8;;
15500;SDS011;7852;52.228;5.990;2023-08-06T03:24:21;75.8;;;71.3;;
15500;SDS011;7852;52.228;5.990;2023-08-06T03:25:21;76.6;;;72.3;;
15500;SDS011;7852;52.228;5.990;2023-08-06T03:26:21;69.6;;;65.4;;
15500;SDS011;7852;52.228;5.990;2023-08-06T03:27:21;67.6;;;63.9;;
15500;SDS011;7852;52.228;5.990;2023-08-06T03:28:21;67.9;;;64.2;;
15500;SDS011;7852;52.228;5.990;2023-08-06T03:29:21;124.1;;;118.8;;
15500;SDS011;7852;52.228;5.990;2023-08-06T03:30:21;67.9;;;63.9;;
15500;SDS011;7852;52.228;5.990;2023-08-06T03:31:21;67.3;;;63.5;;
15500;SDS011;7852;52.228;5.990;2023-08-06T03:32:21;84;;;79.1;;
15500;SDS011;7852;52.228;5.990;2023-08-06T03:33:21;74.4;;;70.1;;
15500;SDS011;7852;52.228;5.990;2023-08-06T03:34:21;88.5;;;83.3;;
15500;SDS011;7852;52.228;5.990;2023-08-06T03:35:21;67.9;;;64;;
15500;SDS011;7852;52.228;5.990;2023-08-06T03:36:21;66.5;;;62.3;;
15500;SDS011;7852;52.228;5.990;2023-08-06T03:37:21;71.1;;;66.8;;
15500;SDS011;7852;52.228;5.990;2023-08-06T03:38:21;86.6;;;81.9;;
15500;SDS011;7852;52.228;5.990;2023-08-06T03:39:21;74.1;;;69.8;;
15500;SDS011;7852;52.228;5.990;2023-08-06T03:40:21;76.9;;;72;;
15500;SDS011;7852;52.228;5.990;2023-08-06T03:41:21;59.8;;;56.2;;
15500;SDS011;7852;52.228;5.990;2023-08-06T03:42:21;65.5;;;61.2;;
15500;SDS011;7852;52.228;5.990;2023-08-06T03:43:21;62.7;;;58.8;;
15500;SDS011;7852;52.228;5.990;2023-08-06T03:44:21;71.2;;;66.8;;
15500;SDS011;7852;52.228;5.990;2023-08-06T03:45:21;66.3;;;62.1;;
15500;SDS011;7852;52.228;5.990;2023-08-06T03:46:21;75.5;;;71.1;;
15500;SDS011;7852;52.228;5.990;2023-08-06T03:47:21;59.8;;;56.2;;
15500;SDS011;7852;52.228;5.990;2023-08-06T03:48:21;83.1;;;78.5;;
15500;SDS011;7852;52.228;5.990;2023-08-06T03:49:21;104.8;;;99.5;;
15500;SDS011;7852;52.228;5.990;2023-08-06T03:50:21;88.1;;;83.7;;
15500;SDS011;7852;52.228;5.990;2023-08-06T03:51:21;94.8;;;89.9;;
15500;SDS011;7852;52.228;5.990;2023-08-06T03:52:21;99.5;;;94.8;;
15500;SDS011;7852;52.228;5.990;2023-08-06T03:53:21;87.5;;;83.2;;
15500;SDS011;7852;52.228;5.990;2023-08-06T03:54:21;85.2;;;80.8;;
15500;SDS011;7852;52.228;5.990;2023-08-06T03:55:21;83.2;;;78.4;;
15500;SDS011;7852;52.228;5.990;2023-08-06T03:56:21;94.8;;;89.7;;
15500;SDS011;7852;52.228;5.990;2023-08-06T03:57:21;88.1;;;83.7;;
15500;SDS011;7852;52.228;5.990;2023-08-06T03:58:21;83;;;78.3;;
15500;SDS011;7852;52.228;5.990;2023-08-06T04:00:21;79.7;;;75.2;;
15500;SDS011;7852;52.228;5.990;2023-08-06T04:01:21;87.8;;;83.1;;
15500;SDS011;7852;52.228;5.990;2023-08-06T04:02:21;89.7;;;85.4;;
15500;SDS011;7852;52.228;5.990;2023-08-06T04:03:21;88.6;;;84.1;;
15500;SDS011;7852;52.228;5.990;2023-08-06T04:04:21;94.8;;;90.3;;
15500;SDS011;7852;52.228;5.990;2023-08-06T04:05:21;87.5;;;82.9;;
15500;SDS011;7852;52.228;5.990;2023-08-06T04:06:21;87.8;;;83.3;;
15500;SDS011;7852;52.228;5.990;2023-08-06T04:07:21;77.3;;;73.3;;
15500;SDS011;7852;52.228;5.990;2023-08-06T04:08:21;82.9;;;78.6;;
15500;SDS011;7852;52.228;5.990;2023-08-06T04:09:21;74.8;;;70.8;;
15500;SDS011;7852;52.228;5.990;2023-08-06T04:10:21;73.8;;;69.6;;
15500;SDS011;7852;52.228;5.990;2023-08-06T04:11:21;75.6;;;71.7;;
15500;SDS011;7852;52.228;5.990;2023-08-06T04:12:21;66.2;;;62.5;;
15500;SDS011;7852;52.228;5.990;2023-08-06T04:13:21;57.7;;;54.3;;
15500;SDS011;7852;52.228;5.990;2023-08-06T04:14:21;68.1;;;64.3;;
15500;SDS011;7852;52.228;5.990;2023-08-06T04:15:21;51.2;;;48;;
15500;SDS011;7852;52.228;5.990;2023-08-06T04:16:21;49.4;;;46.5;;
15500;SDS011;7852;52.228;5.990;2023-08-06T04:17:21;69.1;;;65.3;;
15500;SDS011;7852;52.228;5.990;2023-08-06T04:18:21;73.9;;;70;;
15500;SDS011;7852;52.228;5.990;2023-08-06T04:19:21;82.6;;;78.1;;
15500;SDS011;7852;52.228;5.990;2023-08-06T04:20:21;82.6;;;78.2;;
15500;SDS011;7852;52.228;5.990;2023-08-06T04:21:21;68.3;;;64.4;;
15500;SDS011;7852;52.228;5.990;2023-08-06T04:22:21;73.8;;;69.8;;
15500;SDS011;7852;52.228;5.990;2023-08-06T04:23:21;83.8;;;79.7;;
15500;SDS011;7852;52.228;5.990;2023-08-06T04:24:21;70.4;;;66.6;;
15500;SDS011;7852;52.228;5.990;2023-08-06T04:25:21;55.4;;;52;;
15500;SDS011;7852;52.228;5.990;2023-08-06T04:26:21;58.6;;;55.2;;
15500;SDS011;7852;52.228;5.990;2023-08-06T04:27:21;80;;;76;;
15500;SDS011;7852;52.228;5.990;2023-08-06T04:28:21;90;;;85.1;;
15500;SDS011;7852;52.228;5.990;2023-08-06T04:29:21;85.7;;;81.2;;
15500;SDS011;7852;52.228;5.990;2023-08-06T04:30:21;82.2;;;78;;
15500;SDS011;7852;52.228;5.990;2023-08-06T04:31:21;99.1;;;94.4;;
15500;SDS011;7852;52.228;5.990;2023-08-06T04:32:21;76.4;;;72.3;;
15500;SDS011;7852;52.228;5.990;2023-08-06T04:33:21;88.1;;;83.6;;
15500;SDS011;7852;52.228;5.990;2023-08-06T04:34:21;76.3;;;72.5;;
15500;SDS011;7852;52.228;5.990;2023-08-06T04:35:21;63.5;;;60.2;;
15500;SDS011;7852;52.228;5.990;2023-08-06T04:36:21;55.9;;;52.6;;
15500;SDS011;7852;52.228;5.990;2023-08-06T04:37:21;51.5;;;48.1;;
15500;SDS011;7852;52.228;5.990;2023-08-06T04:38:22;61.3;;;57.8;;
15500;SDS011;7852;52.228;5.990;2023-08-06T04:39:21;59.8;;;56.4;;
15500;SDS011;7852;52.228;5.990;2023-08-06T04:40:21;48.7;;;45.8;;
15500;SDS011;7852;52.228;5.990;2023-08-06T04:41:21;46.7;;;43.6;;
15500;SDS011;7852;52.228;5.990;2023-08-06T04:42:21;49.3;;;46.1;;
15500;SDS011;7852;52.228;5.990;2023-08-06T04:43:21;52.3;;;49;;
15500;SDS011;7852;52.228;5.990;2023-08-06T04:44:21;43.4;;;40.3;;
15500;SDS011;7852;52.228;5.990;2023-08-06T04:45:21;36.1;;;33.6;;
15500;SDS011;7852;52.228;5.990;2023-08-06T04:46:21;40;;;37.3;;
15500;SDS011;7852;52.228;5.990;2023-08-06T04:47:21;56.7;;;53.2;;
15500;SDS011;7852;52.228;5.990;2023-08-06T04:48:21;89.3;;;84.6;;
15500;SDS011;7852;52.228;5.990;2023-08-06T04:49:21;79.7;;;75.4;;
15500;SDS011;7852;52.228;5.990;2023-08-06T04:50:21;78.9;;;74.8;;
15500;SDS011;7852;52.228;5.990;2023-08-06T04:51:21;77.3;;;73.3;;
15500;SDS011;7852;52.228;5.990;2023-08-06T04:52:21;64.7;;;61.1;;
15500;SDS011;7852;52.228;5.990;2023-08-06T04:53:21;82.3;;;77.8;;
15500;SDS011;7852;52.228;5.990;2023-08-06T04:54:21;85.4;;;81.2;;
15500;SDS011;7852;52.228;5.990;2023-08-06T04:55:21;79.6;;;75.2;;
15500;SDS011;7852;52.228;5.990;2023-08-06T04:56:21;100.5;;;95.2;;
15500;SDS011;7852;52.228;5.990;2023-08-06T04:57:21;90.4;;;85.8;;
15500;SDS011;7852;52.228;5.990;2023-08-06T04:58:21;104.2;;;99.2;;
15500;SDS011;7852;52.228;5.990;2023-08-06T04:59:21;95.8;;;91.1;;
15500;SDS011;7852;52.228;5.990;2023-08-06T05:00:21;102.5;;;97.6;;
15500;SDS011;7852;52.228;5.990;2023-08-06T05:01:21;106;;;101.1;;
15500;SDS011;7852;52.228;5.990;2023-08-06T05:02:21;75.2;;;71;;
15500;SDS011;7852;52.228;5.990;2023-08-06T05:03:22;75.2;;;71;;
15500;SDS011;7852;52.228;5.990;2023-08-06T05:04:21;73.9;;;69.9;;
15500;SDS011;7852;52.228;5.990;2023-08-06T05:05:21;92.7;;;88;;
15500;SDS011;7852;52.228;5.990;2023-08-06T05:06:21;80.4;;;76.3;;
15500;SDS011;7852;52.228;5.990;2023-08-06T05:07:21;80.7;;;76.5;;
15500;SDS011;7852;52.228;5.990;2023-08-06T05:08:21;81;;;76.6;;
15500;SDS011;7852;52.228;5.990;2023-08-06T05:09:21;94.6;;;89.9;;
15500;SDS011;7852;52.228;5.990;2023-08-06T05:10:21;90.2;;;85.5;;
15500;SDS011;7852;52.228;5.990;2023-08-06T05:11:21;80.3;;;76;;
15500;SDS011;7852;52.228;5.990;2023-08-06T05:12:21;85.1;;;80.8;;
15500;SDS011;7852;52.228;5.990;2023-08-06T05:13:21;86.9;;;82.3;;
15500;SDS011;7852;52.228;5.990;2023-08-06T05:14:21;99;;;94;;
15500;SDS011;7852;52.228;5.990;2023-08-06T05:15:21;87.4;;;82.9;;
15500;SDS011;7852;52.228;5.990;2023-08-06T05:16:21;94;;;89.3;;
15500;SDS011;7852;52.228;5.990;2023-08-06T05:17:21;93.8;;;88.8;;
15500;SDS011;7852;52.228;5.990;2023-08-06T05:18:21;96.9;;;92.1;;
15500;SDS011;7852;52.228;5.990;2023-08-06T05:19:21;87.4;;;83;;
15500;SDS011;7852;52.228;5.990;2023-08-06T05:20:21;88.1;;;83.8;;
15500;SDS011;7852;52.228;5.990;2023-08-06T05:21:21;82.5;;;78.4;;
15500;SDS011;7852;52.228;5.990;2023-08-06T05:22:21;92.2;;;87.4;;
15500;SDS011;7852;52.228;5.990;2023-08-06T05:23:21;87.9;;;83.7;;
15500;SDS011;7852;52.228;5.990;2023-08-06T05:24:21;96.1;;;91.5;;
15500;SDS011;7852;52.228;5.990;2023-08-06T05:25:21;80.7;;;76.3;;
15500;SDS011;7852;52.228;5.990;2023-08-06T05:26:21;77.7;;;73.8;;
15500;SDS011;7852;52.228;5.990;2023-08-06T05:27:21;90.3;;;85.6;;
15500;SDS011;7852;52.228;5.990;2023-08-06T05:28:21;87.4;;;82.9;;
15500;SDS011;7852;52.228;5.990;2023-08-06T05:29:21;81.6;;;77.3;;
15500;SDS011;7852;52.228;5.990;2023-08-06T05:30:21;84.6;;;80.2;;
15500;SDS011;7852;52.228;5.990;2023-08-06T05:31:21;92.3;;;87.5;;
15500;SDS011;7852;52.228;5.990;2023-08-06T05:32:21;86.4;;;82.2;;
15500;SDS011;7852;52.228;5.990;2023-08-06T05:33:21;78.8;;;74.8;;
15500;SDS011;7852;52.228;5.990;2023-08-06T05:34:21;82.6;;;78.6;;
15500;SDS011;7852;52.228;5.990;2023-08-06T05:35:21;75.8;;;71.6;;
15500;SDS011;7852;52.228;5.990;2023-08-06T05:36:21;96.8;;;91.9;;
15500;SDS011;7852;52.228;5.990;2023-08-06T05:37:21;91.7;;;87.2;;
15500;SDS011;7852;52.228;5.990;2023-08-06T05:38:21;86.4;;;82.3;;
15500;SDS011;7852;52.228;5.990;2023-08-06T05:39:21;63.3;;;60;;
15500;SDS011;7852;52.228;5.990;2023-08-06T05:40:21;42.7;;;40;;
15500;SDS011;7852;52.228;5.990;2023-08-06T05:41:21;47.4;;;44.4;;
15500;SDS011;7852;52.228;5.990;2023-08-06T05:42:21;53.2;;;49.9;;
15500;SDS011;7852;52.228;5.990;2023-08-06T05:43:21;80.7;;;76.7;;
15500;SDS011;7852;52.228;5.990;2023-08-06T05:44:21;76.5;;;72.6;;
15500;SDS011;7852;52.228;5.990;2023-08-06T05:45:21;94.2;;;89.5;;
15500;SDS011;7852;52.228;5.990;2023-08-06T05:46:21;77.4;;;73.4;;
15500;SDS011;7852;52.228;5.990;2023-08-06T05:47:21;74.7;;;70.9;;
15500;SDS011;7852;52.228;5.990;2023-08-06T05:48:21;63.5;;;60.1;;
15500;SDS011;7852;52.228;5.990;2023-08-06T05:49:21;60.2;;;57.1;;
15500;SDS011;7852;52.228;5.990;2023-08-06T05:50:21;77.8;;;73.8;;
15500;SDS011;7852;52.228;5.990;2023-08-06T05:51:21;59.5;;;56.2;;
15500;SDS011;7852;52.228;5.990;2023-08-06T05:52:21;53.4;;;50.1;;
15500;SDS011;7852;52.228;5.990;2023-08-06T05:53:21;44.6;;;41.7;;
15500;SDS011;7852;52.228;5.990;2023-08-06T05:54:21;43.7;;;41;;
15500;SDS011;7852;52.228;5.990;2023-08-06T05:55:21;39.5;;;36.9;;
15500;SDS011;7852;52.228;5.990;2023-08-06T05:56:21;36.5;;;34.2;;
15500;SDS011;7852;52.228;5.990;2023-08-06T05:57:21;51.1;;;48.1;;
15500;SDS011;7852;52.228;5.990;2023-08-06T05:58:21;42.2;;;39.4;;
15500;SDS011;7852;52.228;5.990;2023-08-06T05:59:21;44.5;;;41.9;;
15500;SDS011;7852;52.228;5.990;2023-08-06T06:00:21;54.6;;;51.4;;
15500;SDS011;7852;52.228;5.990;2023-08-06T06:01:21;45.8;;;42.9;;
15500;SDS011;7852;52.228;5.990;2023-08-06T06:02:21;54.6;;;51.4;;
15500;SDS011;7852;52.228;5.990;2023-08-06T06:03:21;46.1;;;43.3;;
15500;SDS011;7852;52.228;5.990;2023-08-06T06:04:21;54.5;;;51.6;;
15500;SDS011;7852;52.228;5.990;2023-08-06T06:05:21;78.1;;;74.2;;
15500;SDS011;7852;52.228;5.990;2023-08-06T06:06:21;52;;;49;;
15500;SDS011;7852;52.228;5.990;2023-08-06T06:07:21;38.9;;;36.4;;
15500;SDS011;7852;52.228;5.990;2023-08-06T06:08:21;33.3;;;31.1;;